Kezdőlap
METAR-TAF:

METAR-TAF

Repülőterek :

Torino, Olaszország

földrajzi szélesség: 45-05-20N, földrajzi hosszúság: 007-36-20E, magasság: 288 m

Jelenlegi meteorológiai megfigyelések

A jelentés 11 órával és 11 perccel ezelõtt készült, 15:50 UTC
Északi szél 4 kt
Hőmérséklet 5°C
Páratartalom 75%
Légköri nyomás 1006 hPa
Látótávolság 10 km, vagy több
Szórványos felhőzet 4000 lábon

METAR: LIMA 271550Z 36004KT 9999 SCT040 05/01 Q1006

Idő: 04:01 (03:01 UTC)


TAF: hiányzik

Meteorológiai megfigyelések és előrejelzések több, mint 4000 repülőtéren (METAR és TAF jelentéseket).

A térképen piros és sárga pontok jelzik az elérhető meteorológiai állomásokat.

Mozgassa az egeret a pont fölött, hogy megjelenjen az állomás neve.

Azután kattintson az időjárási megfigyelések és előrejelzések megtekintéséhez.

A térkép megváltoztatása: kattintson a fekete keresztel jelölt zöld gombra ráközelítéshez, a vonallal jelölt zöld gombra távolításhoz, vagy a zöld nyilakra a szomszédos térképek eléréséhez.


METAR-TAF: